createdAt,value
2018-07-27T00:00:04.966Z,21.80
2018-07-27T00:02:33.579Z,21.80
2018-07-27T00:05:02.125Z,21.10
2018-07-27T00:07:30.690Z,21.10
2018-07-27T00:09:59.429Z,21.20
2018-07-27T00:12:28.014Z,21.30
2018-07-27T00:14:56.555Z,21.20
2018-07-27T00:17:25.117Z,21.20
2018-07-27T00:19:53.627Z,21.20
2018-07-27T00:22:22.670Z,21.20
2018-07-27T00:24:51.229Z,21.20
2018-07-27T00:27:19.836Z,21.10
2018-07-27T00:29:49.167Z,21.10
2018-07-27T00:32:17.728Z,20.90
2018-07-27T00:34:46.292Z,20.80
2018-07-27T00:55:39.506Z,20.80
2018-07-27T00:58:08.059Z,20.90
2018-07-27T01:00:36.597Z,19.60
2018-07-27T01:03:05.220Z,19.60
2018-07-27T01:05:33.756Z,19.70
2018-07-27T01:08:02.339Z,19.70
2018-07-27T01:10:30.959Z,19.80
2018-07-27T01:12:59.501Z,19.70
2018-07-27T01:15:28.114Z,19.70
2018-07-27T01:17:57.109Z,19.80
2018-07-27T01:20:25.694Z,19.80
2018-07-27T01:22:55.118Z,19.80
2018-07-27T01:25:23.717Z,19.90
2018-07-27T01:27:52.269Z,19.90
2018-07-27T01:30:21.553Z,19.80
2018-07-27T01:32:50.138Z,19.80
2018-07-27T01:35:18.806Z,19.80
2018-07-27T01:37:47.389Z,19.80
2018-07-27T01:40:18.105Z,19.70
2018-07-27T01:42:46.759Z,19.70
2018-07-27T01:51:25.361Z,19.80
2018-07-27T01:53:53.903Z,19.80
2018-07-27T01:56:22.487Z,19.50
2018-07-27T01:58:51.432Z,19.50
2018-07-27T02:01:20.039Z,19.40
2018-07-27T02:03:48.592Z,19.40
2018-07-27T02:06:17.454Z,19.40
2018-07-27T02:08:46.043Z,19.30
2018-07-27T02:31:45.306Z,19.40
2018-07-27T02:34:16.128Z,19.40
2018-07-27T02:36:44.822Z,18.90
2018-07-27T02:41:42.575Z,18.90
2018-07-27T02:44:11.123Z,19.00
2018-07-27T02:46:39.741Z,19.00
2018-07-27T02:49:08.814Z,19.00
2018-07-27T02:51:37.486Z,19.10
2018-07-27T02:54:06.154Z,19.10
2018-07-27T02:56:34.686Z,19.20
2018-07-27T02:59:03.243Z,19.20
2018-07-27T03:01:31.802Z,19.30
2018-07-27T03:04:00.413Z,19.20
2018-07-27T03:06:28.936Z,19.20
2018-07-27T03:08:57.507Z,19.30
2018-07-27T03:11:26.059Z,19.30
2018-07-27T03:13:54.586Z,19.30
2018-07-27T03:16:23.556Z,19.30
2018-07-27T03:18:52.125Z,19.30
2018-07-27T03:21:20.702Z,19.30
2018-07-27T03:23:49.474Z,19.30
2018-07-27T03:26:18.038Z,19.30
2018-07-27T03:42:18.526Z,19.40
2018-07-27T03:44:47.420Z,19.30
2018-07-27T03:47:17.419Z,19.00
2018-07-27T03:49:45.967Z,19.00
2018-07-27T03:52:15.665Z,19.00
2018-07-27T03:54:44.224Z,18.90
2018-07-27T03:57:12.874Z,18.80
2018-07-27T03:59:41.491Z,18.80
2018-07-27T04:02:10.036Z,18.80
2018-07-27T04:04:38.935Z,18.90
2018-07-27T04:07:07.550Z,18.90
2018-07-27T04:09:36.130Z,19.00
2018-07-27T04:12:04.811Z,19.00
2018-07-27T04:14:33.430Z,19.00
2018-07-27T04:17:02.656Z,19.00
2018-07-27T04:19:31.221Z,19.00
2018-07-27T04:21:59.791Z,19.00
2018-07-27T04:24:29.214Z,19.10
2018-07-27T04:26:57.804Z,19.20
2018-07-27T04:29:27.550Z,19.20
2018-07-27T04:31:56.070Z,19.30
2018-07-27T04:34:24.629Z,19.30
2018-07-27T04:36:53.170Z,19.20
2018-07-27T04:39:21.681Z,19.20
2018-07-27T04:41:50.345Z,19.20
2018-07-27T04:44:18.846Z,19.20
2018-07-27T04:46:47.590Z,19.30
2018-07-27T04:49:17.808Z,19.40
2018-07-27T04:51:46.359Z,19.40
2018-07-27T05:02:59.984Z,19.40
2018-07-27T05:05:29.044Z,19.40
2018-07-27T05:07:57.533Z,19.40
2018-07-27T05:10:58.716Z,19.40
2018-07-27T05:13:27.226Z,19.50
2018-07-27T05:15:55.766Z,19.60
2018-07-27T05:18:24.314Z,19.80
2018-07-27T05:20:52.864Z,19.90
2018-07-27T05:23:21.394Z,20.00
2018-07-27T05:28:18.195Z,20.20
2018-07-27T05:30:46.868Z,20.40
2018-07-27T05:42:57.247Z,20.40
2018-07-27T05:45:25.948Z,20.50
2018-07-27T05:50:24.226Z,20.90
2018-07-27T05:52:52.948Z,21.00
2018-07-27T05:55:22.131Z,21.20
2018-07-27T05:57:50.759Z,21.40
2018-07-27T06:00:19.344Z,21.80
2018-07-27T06:02:47.978Z,22.40
2018-07-27T06:05:18.074Z,23.40
2018-07-27T06:07:46.683Z,24.60
2018-07-27T06:28:19.480Z,26.10
2018-07-27T06:30:47.917Z,26.90
2018-07-27T06:35:45.712Z,29.20
2018-07-27T06:48:46.076Z,29.10
2018-07-27T06:58:53.522Z,29.10
2018-07-27T07:01:22.021Z,30.20
2018-07-27T07:03:50.477Z,29.80
2018-07-27T07:06:19.372Z,29.70
2018-07-27T07:08:47.833Z,29.80
2018-07-27T07:11:17.349Z,30.00
2018-07-27T07:13:45.877Z,29.70
2018-07-27T07:24:12.937Z,29.30
2018-07-27T07:26:42.214Z,29.30
2018-07-27T07:29:10.708Z,28.60
2018-07-27T07:31:39.211Z,29.00
2018-07-27T07:34:07.709Z,29.40
2018-07-27T07:36:36.217Z,29.60
2018-07-27T07:39:08.141Z,29.90
2018-07-27T07:41:36.681Z,30.30
2018-07-27T07:44:05.502Z,30.90
2018-07-27T07:46:35.451Z,31.40
2018-07-27T07:49:05.130Z,31.50
2018-07-27T07:51:35.424Z,32.50
2018-07-27T07:54:04.421Z,34.80
2018-07-27T07:56:33.637Z,37.20
2018-07-27T07:59:02.738Z,38.70
2018-07-27T08:01:31.447Z,40.30
2018-07-27T08:06:28.379Z,41.90
2018-07-27T08:08:57.076Z,42.90
2018-07-27T08:11:27.107Z,43.50
2018-07-27T08:13:56.182Z,43.90
2018-07-27T08:16:24.822Z,44.10
2018-07-27T08:18:53.313Z,43.70
2018-07-27T08:21:24.136Z,43.00
2018-07-27T08:23:52.889Z,43.10
2018-07-27T08:26:47.238Z,42.70
2018-07-27T08:41:30.651Z,43.40
2018-07-27T08:43:59.122Z,43.70
2018-07-27T08:46:27.624Z,42.80
2018-07-27T08:48:57.529Z,42.30
2018-07-27T08:51:26.502Z,42.90
2018-07-27T08:53:55.961Z,42.50
2018-07-27T08:58:53.874Z,43.80
2018-07-27T09:01:22.434Z,43.30
2018-07-27T09:03:51.224Z,42.70
2018-07-27T09:06:19.901Z,43.20
2018-07-27T09:11:17.575Z,43.20
2018-07-27T09:13:46.075Z,43.10
2018-07-27T09:22:27.542Z,43.30
2018-07-27T09:24:56.268Z,42.40
2018-07-27T09:27:24.549Z,42.20
2018-07-27T09:32:23.785Z,42.90
2018-07-27T09:34:52.691Z,42.70
2018-07-27T09:37:21.212Z,42.60
2018-07-27T09:39:49.767Z,42.60
2018-07-27T09:42:18.242Z,43.60
2018-07-27T09:44:48.234Z,44.40
2018-07-27T09:47:18.623Z,44.70
2018-07-27T09:49:47.178Z,43.90
2018-07-27T09:52:17.600Z,43.50
2018-07-27T09:54:46.251Z,43.40
2018-07-27T10:16:46.943Z,42.60
2018-07-27T10:21:52.413Z,38.40
2018-07-27T10:24:20.929Z,37.20
2018-07-27T10:26:49.449Z,36.40
2018-07-27T10:29:17.996Z,35.70
2018-07-27T10:50:27.147Z,34.50
2018-07-27T10:52:55.947Z,33.90
2018-07-27T10:57:52.734Z,30.80
2018-07-27T11:00:21.354Z,30.80
2018-07-27T11:02:49.872Z,30.80
2018-07-27T11:05:18.481Z,30.60
2018-07-27T11:07:47.040Z,30.70
2018-07-27T11:29:47.153Z,30.80
2018-07-27T11:34:53.207Z,31.10
2018-07-27T11:37:22.565Z,31.10
2018-07-27T11:39:51.082Z,31.20
2018-07-27T11:42:19.657Z,31.40
2018-07-27T11:44:49.238Z,31.50
2018-07-27T11:47:17.738Z,31.40
2018-07-27T11:49:46.872Z,31.20
2018-07-27T11:58:27.302Z,31.00
2018-07-27T12:00:56.249Z,30.90
2018-07-27T12:03:24.731Z,31.10
2018-07-27T12:05:54.634Z,31.10
2018-07-27T12:08:24.269Z,31.30
2018-07-27T12:10:52.735Z,31.30
2018-07-27T12:13:21.346Z,31.20
2018-07-27T12:15:50.488Z,31.30
2018-07-27T12:18:18.963Z,31.40
2018-07-27T12:20:47.631Z,31.50
2018-07-27T12:31:48.763Z,31.80
2018-07-27T12:34:18.078Z,31.70
2018-07-27T12:36:46.582Z,31.50
2018-07-27T12:49:20.053Z,31.70
2018-07-27T12:54:16.878Z,31.70
2018-07-27T12:56:45.485Z,31.80
2018-07-27T13:07:01.100Z,31.80
2018-07-27T13:09:31.407Z,31.90
2018-07-27T13:11:59.970Z,31.80
2018-07-27T13:14:28.512Z,31.90
2018-07-27T13:16:57.063Z,31.90
2018-07-27T13:19:25.563Z,31.90
2018-07-27T13:21:54.184Z,32.00
2018-07-27T13:29:19.919Z,32.20
2018-07-27T13:34:41.031Z,32.10
2018-07-27T13:37:11.204Z,32.10
2018-07-27T13:39:41.115Z,32.10
2018-07-27T13:42:17.351Z,32.10
2018-07-27T13:44:46.349Z,32.20
2018-07-27T13:56:56.704Z,32.30
2018-07-27T13:59:25.648Z,32.20
2018-07-27T14:01:54.158Z,32.30
2018-07-27T14:04:23.240Z,32.40
2018-07-27T14:07:00.944Z,32.60
2018-07-27T14:09:29.733Z,32.60
2018-07-27T14:11:59.149Z,32.60
2018-07-27T14:14:27.807Z,32.70
2018-07-27T14:16:56.802Z,32.70
2018-07-27T14:19:26.024Z,32.80
2018-07-27T14:21:54.691Z,32.60
2018-07-27T14:24:23.313Z,32.50
2018-07-27T14:26:52.885Z,32.40
2018-07-27T14:29:23.377Z,32.50
2018-07-27T14:31:52.012Z,32.50
2018-07-27T14:34:20.858Z,32.60
2018-07-27T14:36:49.605Z,32.70
2018-07-27T14:39:18.276Z,32.70
2018-07-27T14:41:48.066Z,32.70
2018-07-27T14:44:17.412Z,32.50
2018-07-27T14:46:47.335Z,32.50
2018-07-27T14:49:18.419Z,32.70
2018-07-27T14:51:47.007Z,32.80
2018-07-27T15:02:53.682Z,32.80
2018-07-27T15:05:22.389Z,32.70
2018-07-27T15:07:51.069Z,32.80
2018-07-27T15:10:21.025Z,32.70
2018-07-27T15:12:50.300Z,32.80
2018-07-27T15:17:47.964Z,32.70
2018-07-27T15:28:07.369Z,32.80
2018-07-27T15:30:36.207Z,32.80
2018-07-27T15:35:33.089Z,32.00
2018-07-27T15:38:01.880Z,32.00
2018-07-27T15:40:30.462Z,32.00
2018-07-27T15:42:59.132Z,31.90
2018-07-27T15:45:27.728Z,31.90
2018-07-27T15:47:56.359Z,31.80
2018-07-27T15:50:25.259Z,31.80
2018-07-27T15:52:53.774Z,31.80
2018-07-27T15:55:22.306Z,31.80
2018-07-27T15:57:50.901Z,31.80
2018-07-27T16:00:19.422Z,31.80
2018-07-27T16:02:48.210Z,31.90
2018-07-27T16:05:18.773Z,32.10
2018-07-27T16:07:47.352Z,32.20
2018-07-27T16:28:05.518Z,32.30
2018-07-27T16:30:34.030Z,32.40
2018-07-27T16:33:02.575Z,31.90
2018-07-27T16:35:31.179Z,31.90
2018-07-27T16:37:59.645Z,31.70
2018-07-27T16:40:28.238Z,31.60
2018-07-27T16:42:56.830Z,31.70
2018-07-27T16:45:25.654Z,31.80
2018-07-27T16:47:54.152Z,31.70
2018-07-27T16:50:23.373Z,31.80
2018-07-27T16:52:52.039Z,31.80
2018-07-27T16:57:48.718Z,31.60
2018-07-27T17:00:17.619Z,31.50
2018-07-27T17:02:46.149Z,31.50
2018-07-27T17:23:53.327Z,31.60
2018-07-27T17:26:22.072Z,31.60
2018-07-27T17:28:50.659Z,30.80
2018-07-27T17:31:19.717Z,30.80
2018-07-27T17:33:48.401Z,30.80
2018-07-27T17:36:17.377Z,30.70
2018-07-27T17:38:45.925Z,30.70
2018-07-27T17:58:48.709Z,30.70
2018-07-27T18:01:17.466Z,30.70
2018-07-27T18:03:45.947Z,30.10
2018-07-27T18:14:14.058Z,30.10
2018-07-27T18:16:42.603Z,29.90
2018-07-27T18:19:11.625Z,29.50
2018-07-27T18:21:40.195Z,29.40
2018-07-27T18:24:08.744Z,29.30
2018-07-27T18:26:38.126Z,29.20
2018-07-27T18:29:06.958Z,29.20
2018-07-27T18:31:35.482Z,29.10
2018-07-27T18:34:03.772Z,29.00
2018-07-27T18:36:32.906Z,28.90
2018-07-27T18:39:01.429Z,28.90
2018-07-27T18:41:29.926Z,28.90
2018-07-27T18:43:58.551Z,28.80
2018-07-27T18:46:27.102Z,28.70
2018-07-27T18:48:55.675Z,28.60
2018-07-27T18:51:24.350Z,28.50
2018-07-27T18:53:53.055Z,28.40
2018-07-27T18:56:21.592Z,28.30
2018-07-27T18:58:50.670Z,28.20
2018-07-27T19:01:19.190Z,28.10
2018-07-27T19:03:47.729Z,28.00
2018-07-27T19:14:38.876Z,28.00
2018-07-27T19:17:07.427Z,27.80
2018-07-27T19:19:36.080Z,27.40
2018-07-27T19:22:04.755Z,27.40
2018-07-27T19:24:33.477Z,27.30
2018-07-27T19:41:28.206Z,26.60
2018-07-27T19:43:58.219Z,26.60
2018-07-27T19:46:27.128Z,26.50
2018-07-27T19:48:56.173Z,26.40
2018-07-27T19:51:24.802Z,26.30
2018-07-27T19:53:53.552Z,26.20
2018-07-27T19:56:23.476Z,26.10
2018-07-27T19:58:52.454Z,26.00
2018-07-27T20:01:21.124Z,26.00
2018-07-27T20:03:50.760Z,25.90
2018-07-27T20:06:19.374Z,25.80
2018-07-27T20:08:48.171Z,25.80
2018-07-27T20:11:17.496Z,25.70
2018-07-27T20:13:51.744Z,25.70
2018-07-27T20:16:20.350Z,25.60
2018-07-27T20:18:48.872Z,25.60
2018-07-27T20:21:17.425Z,25.50
2018-07-27T20:23:46.076Z,25.40
2018-07-27T20:31:50.051Z,25.40
2018-07-27T20:34:18.783Z,25.30
2018-07-27T20:47:27.461Z,25.00
2018-07-27T20:49:56.405Z,25.00
2018-07-27T20:52:25.316Z,24.50
2018-07-27T20:54:54.014Z,24.50
2018-07-27T20:57:22.654Z,24.40
2018-07-27T20:59:51.214Z,24.40
2018-07-27T21:02:20.663Z,24.40
2018-07-27T21:04:49.196Z,24.40
2018-07-27T21:07:17.737Z,24.40
2018-07-27T21:09:46.432Z,24.40
2018-07-27T21:12:17.900Z,24.50
2018-07-27T21:27:47.686Z,24.50
2018-07-27T21:30:17.771Z,24.40
2018-07-27T21:32:46.311Z,24.20
2018-07-27T21:43:03.024Z,24.10
2018-07-27T21:45:31.726Z,24.10
2018-07-27T21:48:00.322Z,24.00
2018-07-27T21:52:57.546Z,23.90
2018-07-27T21:55:26.053Z,23.90
2018-07-27T21:57:54.686Z,23.90
2018-07-27T22:00:23.177Z,23.90
2018-07-27T22:02:51.757Z,23.80
2018-07-27T22:05:20.297Z,23.80
2018-07-27T22:07:53.090Z,23.80
2018-07-27T22:10:21.650Z,23.70
2018-07-27T22:12:50.170Z,23.60
2018-07-27T22:15:24.441Z,23.60
2018-07-27T22:17:53.065Z,23.60
2018-07-27T22:20:23.008Z,23.60
2018-07-27T22:22:51.845Z,23.50
2018-07-27T22:25:20.418Z,23.50
2018-07-27T22:27:49.284Z,23.50
2018-07-27T22:30:17.884Z,23.40
2018-07-27T22:32:46.419Z,23.40
2018-07-27T22:43:32.592Z,23.40
2018-07-27T22:46:01.224Z,23.30
2018-07-27T22:48:30.957Z,22.90
2018-07-27T22:50:59.879Z,22.90
2018-07-27T22:53:28.435Z,22.90
2018-07-27T22:55:57.069Z,22.80
2018-07-27T22:58:25.645Z,22.80
2018-07-27T23:00:54.138Z,22.60
2018-07-27T23:03:22.673Z,22.70
2018-07-27T23:05:51.609Z,22.70
2018-07-27T23:08:20.132Z,22.60
2018-07-27T23:10:48.667Z,22.60
2018-07-27T23:13:17.568Z,22.40
2018-07-27T23:15:46.145Z,22.30
2018-07-27T23:28:48.580Z,22.30
2018-07-27T23:31:17.395Z,22.10
2018-07-27T23:33:47.665Z,21.90
2018-07-27T23:36:17.511Z,21.80
2018-07-27T23:38:46.043Z,21.70
2018-07-27T23:41:15.718Z,21.80
2018-07-27T23:43:44.361Z,21.80
2018-07-27T23:46:12.958Z,21.70
2018-07-27T23:48:41.551Z,21.70
2018-07-27T23:51:11.140Z,21.60
2018-07-27T23:53:39.646Z,21.60
2018-07-27T23:56:08.728Z,21.60
2018-07-27T23:58:37.306Z,21.50
